x

Port Colborne (45142) Weather Station

1:00pm - Sun 19th Nov 2017 All times are CST. -6 hours from GMT.

  • Wind
    31mph
  • Sea Temp 50°f
  • Air Temp 38°f
  • Sea Pressure 1005.2mb
  • Port Colborne
  • Port Colborne

More Historic Weather Station data

Upgrade to MSW Pro to gain access to the past 30 days of data for over 8000 Wavebouys and Weather Stations around the globe.

Join

Comparision Forecast

View Surf forecast
   
Sun 11/19 1:00pm  -   -  31
mph
1005.2mb 50f 38f
12:00pm 7.5ft 6s 29 36 mph 1004.7mb 50f 40f
11:00am 6ft 7s 29 36 mph 1004.5mb 50f 41f
10:00am 5ft 5s 22 29 mph 1004.9mb 50f 41f
9:00am 5ft 5s 20 25 mph 1004.7mb 50f 40f
8:00am 4.5ft 5s 20 27 mph 1003.9mb 50f 39f
7:00am 5ft 6s 22 31 mph 1002.8mb 50f 40f
6:00am 5.5ft 6s 27 34 mph 1001.1mb 50f 40f
5:00am 5.5ft 6s 27 34 mph 999.4mb 50f 40f
4:00am 6ft 5s 29 40 mph 997.7mb 50f 40f
3:00am 4.5ft 5s 31 38 mph 995.1mb 50f 40f
2:00am 4.5ft 4s 25 31 mph 993mb 50f 40f
1:00am 4.5ft 5s 31 38 mph 990.1mb 51f 40f
12:00am 4ft 4s 31 43 mph 987.3mb 51f 42f
Sat 11/18 11:00pm 1.6ft 5s 31
mph
984.5mb 51f 45f
10:00pm 1.3ft 6s 2 2 mph 984.1mb 51f 51f
9:00pm 1.3ft 5s 4 4 mph 984.9mb 51f 50f
8:00pm 1.6ft 6s 9 11 mph 985.5mb 51f 50f
7:00pm 2ft 5s 4 7 mph 986.7mb 51f 51f
6:00pm 2.5ft 5s 7 9 mph 988mb 51f 50f
5:00pm 2.5ft 5s 9 11 mph 989.7mb 51f 49f
4:00pm 3ft 5s 13 18 mph 991.2mb 51f 49f
3:00pm 3.5ft 5s 16 18 mph 992.4mb 51f 50f
2:00pm 3.5ft 5s 18 22 mph 993.4mb 51f 50f
1:00pm 4ft 6s 16 18 mph 994.4mb 51f 49f
12:00pm 4.5ft 5s 18 22 mph 996.2mb 51f 49f
11:00am 4.5ft 6s 20 25 mph 998mb 51f 49f
10:00am 4.5ft 6s 18 22 mph 998.9mb 51f 49f
9:00am 5ft 6s 20 27 mph 999.6mb 51f 49f
8:00am 5ft 6s 25 31 mph 1000.4mb 51f 49f
7:00am 4.5ft 5s 25 29 mph 1000.8mb 51f 48f
6:00am 4.5ft 6s 25 34 mph 1001.5mb 50f 48f
5:00am 3.5ft 5s 20 22 mph 1002.9mb 50f 48f
4:00am 3.5ft 5s 22 27 mph 1004.1mb 50f 49f
3:00am 3ft 4s 22 27 mph 1005mb 50f 50f
2:00am 2.5ft 4s 25 27 mph 1005.6mb 50f 48f
1:00am 2ft 3s 20 25 mph 1006.8mb 50f 47f
12:00am 1.6ft 3s 18 20 mph 1008.3mb 50f 46f
Fri 11/17 11:00pm 2ft 3s 18 22 mph 1010mb 50f 45f
10:00pm 1.6ft 3s 18 22 mph 1011.9mb 50f 44f
9:00pm 1.6ft 3s 18 20 mph 1013.2mb 50f 43f
8:00pm 1ft 2s 20 25 mph 1014.3mb 50f 43f
7:00pm 0.3ft 4s 13 16 mph 1015.5mb 50f 42f
6:00pm 0.7ft 4s 9 11 mph 1017.1mb 50f 41f
5:00pm 0.7ft 4s 7 9 mph 1018mb 50f 40f
4:00pm 0.7ft 4s 4 7 mph 1019.1mb 50f 39f
3:00pm 0.7ft 5s 7 9 mph 1019.8mb 50f 38f
2:00pm 1ft 4s 4 9 mph 1021mb 50f 38f
1:00pm 1ft 5s 7 11 mph 1022.2mb 51f 37f
12:00pm 1ft 5s 9 13 mph 1023.1mb 51f 36f
11:00am 1.3ft 5s 2 7 mph 1024mb 50f 34f
10:00am 1.3ft 5s 2 7 mph 1025mb 50f 33f
9:00am 1.6ft 5s 2 7 mph 1025.9mb 50f 33f
8:00am 1.6ft 6s 4 7 mph 1026mb 49f 32f
7:00am 2ft 6s 7 11 mph 1026mb 49f 32f
6:00am 2.5ft 6s 7 11 mph 1025.2mb 49f 32f
5:00am 2.5ft 6s 11 13 mph 1024.6mb 49f 33f
4:00am 3.5ft 6s 11 16 mph 1024mb 49f 33f
3:00am 3.5ft 6s 13 20 mph 1023.6mb 49f 34f
2:00am 4.5ft 6s 18 22 mph 1023.4mb 49f 35f
1:00am 4ft 7s 16 20 mph 1023mb 49f 35f
12:00am 4.5ft 7s 18 20 mph 1022.2mb 49f 36f
Thu 11/16 11:00pm 4.5ft 7s 16 22 mph 1021.6mb 50f 36f
10:00pm 5ft 7s 18 22 mph 1021mb 50f 36f
9:00pm 5ft 7s 20 27 mph 1020.7mb 50f 38f
8:00pm 6ft 7s 20 27 mph 1019.7mb 50f 39f
7:00pm 6.5ft 8s 22 27 mph 1018.6mb 51f 39f
6:00pm  -   -  22
mph
1017.8mb - 41f
5:00pm 7ft 7s 29 34 mph 1016.6mb 51f 42f
4:00pm 7.5ft 7s 27 34 mph 1015mb 51f 43f
3:00pm 8ft 8s 27 36 mph 1013.8mb 51f 44f
2:00pm 8.5ft 8s 27 34 mph 1012.6mb 51f 44f
1:00pm 9ft 8s 31 36 mph 1011.4mb 51f 44f
11:00am  -   -  31
mph
- - -
10:00am 8ft 7s 31 38 mph 1009.2mb 51f 44f
9:00am 8ft 6s 29 36 mph 1008.9mb 51f 44f
8:00am  -   -  29
mph
1008.2mb - 44f
7:00am 7ft 6s 27 34 mph 1007.5mb 52f 45f
6:00am 8ft 7s 27 34 mph 1006.4mb 52f 46f
5:00am  -   -  29
mph
1005.8mb - 48f
3:00am 8ft 7s 27 34 mph 1005.7mb 52f 48f
2:00am 9ft 7s 34 43 mph 1004.7mb 52f 49f
1:00am 8ft 7s 36 45 mph 1004.2mb 52f 50f
12:00am 7ft 7s 34 40 mph 1003.8mb 52f 50f
Wed 11/15 11:00pm 6.5ft 6s 31 38 mph 1004.6mb 52f 49f
10:00pm 6ft 6s 29 36 mph 1005.2mb 52f 48f